CNZ4 weather

Barry's Bay / Madawaska Valley Airpark
Barry's Bay, Ontario, Canada

Public forecast

Using degrees Celsius for public forecast. Weather courtesy of forecast.io.

Closest aviation weather report (METAR) to Barry's Bay / Madawaska Valley Airpark

Closest report is Petawawa Airport, 30.1 nm (55.8 km) NNE. Retrieved 2020/05/27 21:00 UTC (33 minutes ago):

CYWA 272100Z AUTO 21010KT 150V240 9SM FEW081 35/18 A2994 RMK SLP139

Closest aviation forecast (TAF) to Barry's Bay / Madawaska Valley Airpark

Closest forecast is Petawawa Airport, 30.1 nm (55.8 km) NNE. Retrieved 2020/05/27 18:33 UTC (3 hours ago):

TAF CYWA 271730Z 2718/2806 20008KT P6SM FEW070 SCT090 BECMG 2802/2804 VRB03KT RMK FCST BASED ON AUTO OBS NXT FCST BY 280000Z